Station Historical Data
Daily Summary for February 7, 2012 Units:  Metric    English   Both
« Previous Day
Next Day »
Daily Weekly Monthly Yearly Custom
  High: Low: Average:
Temperature: 13.6 °C 0.1 °C 7.3 °C
Dew Point: 3.7 °C -1.8 °C 0.9 °C
Humidity: 96% 35% 68%
Wind Speed: 14.5km/h 0km/h 3.9km/h
Wind Gust: 19.3km/h - -
Wind- - SE
Pressure: 1024.9 hPa 1021.6 hPa -
Precipitation: 0 mm    
Historical Graphs
 
 
Tabular Data for February 7, 2012
Time Temperature Dew Point Pressure Wind Wind Speed Wind Gust Humidity Rainfall Rate (Hourly) Conditions
00:00 3.7 °C 2.1 °C 1022.6 hPa Calm     89% 0 mm
00:01 3.7 °C 2.1 °C 1022.6 hPa Calm     89% 0 mm
00:06 3.7 °C 2.2 °C 1022.9 hPa Calm     90% 0 mm
00:11 3.6 °C 2.1 °C 1022.6 hPa Calm     90% 0 mm
00:16 3.5 °C 2 °C 1022.9 hPa Calm     90% 0 mm
00:21 3.6 °C 2.1 °C 1022.9 hPa Calm     90% 0 mm
00:26 3.5 °C 2 °C 1022.9 hPa Calm     90% 0 mm
00:31 3.3 °C 1.8 °C 1022.9 hPa Calm     90% 0 mm
00:36 3.1 °C 1.7 °C 1022.9 hPa Calm     91% 0 mm
00:41 2.9 °C 1.6 °C 1022.9 hPa Calm     91% 0 mm
00:46 2.7 °C 1.5 °C 1022.9 hPa Calm     92% 0 mm
00:51 2.5 °C 1.3 °C 1022.9 hPa Calm     92% 0 mm
00:56 2.4 °C 1.4 °C 1022.9 hPa Calm     93% 0 mm
01:01 2.3 °C 1.3 °C 1022.9 hPa Calm     93% 0 mm
01:06 2.3 °C 1.4 °C 1022.9 hPa Calm     94% 0 mm
01:11 2.2 °C 1.3 °C 1022.9 hPa Calm     94% 0 mm
01:16 2.2 °C 1.3 °C 1022.9 hPa Calm     94% 0 mm
01:22 2.2 °C 1.3 °C 1022.9 hPa Calm     94% 0 mm
01:27 2.1 °C 1.2 °C 1022.9 hPa Calm     94% 0 mm
01:32 2.1 °C 1.3 °C 1023.2 hPa Calm     95% 0 mm
01:37 2 °C 1.3 °C 1022.9 hPa Calm     95% 0 mm
01:42 1.9 °C 1.2 °C 1022.9 hPa Calm     95% 0 mm
01:47 1.9 °C 1.2 °C 1023.2 hPa Calm     95% 0 mm
01:52 1.9 °C 1.2 °C 1023.2 hPa Calm     95% 0 mm
01:57 1.9 °C 1.2 °C 1023.2 hPa Calm     95% 0 mm
02:02 1.8 °C 1.1 °C 1023.2 hPa Calm     95% 0 mm
02:07 1.7 °C 1 °C 1023.2 hPa Calm     95% 0 mm
02:12 1.6 °C 0.8 °C 1023.2 hPa Calm     95% 0 mm
02:17 1.7 °C 1.1 °C 1023.2 hPa Calm     96% 0 mm
02:22 2 °C 1.4 °C 1023.2 hPa North 1.6 km/h 1.6 km/h 96% 0 mm
02:27 2.1 °C 1.5 °C 1023.2 hPa NNW 1.6 km/h 1.6 km/h 96% 0 mm
02:32 1.9 °C 1.4 °C 1023.2 hPa NNW 1.6 km/h 1.6 km/h 96% 0 mm
02:37 1.8 °C 1.3 °C 1022.9 hPa North 3.2 km/h 3.2 km/h 96% 0 mm
02:42 1.6 °C 0.9 °C 1022.9 hPa North 1.6 km/h 3.2 km/h 95% 0 mm
02:47 1.5 °C 0.8 °C 1022.9 hPa North 1.6 km/h 1.6 km/h 95% 0 mm
02:52 1.6 °C 1 °C 1022.9 hPa Calm   1.6 km/h 96% 0 mm
02:57 1.8 °C 1.2 °C 1022.9 hPa North 1.6 km/h 3.2 km/h 96% 0 mm
03:02 2 °C 1.4 °C 1022.9 hPa Calm   1.6 km/h 96% 0 mm
03:08 2.1 °C 1.6 °C 1022.9 hPa North 1.6 km/h 1.6 km/h 96% 0 mm
03:13 2.4 °C 1.8 °C 1022.9 hPa North 3.2 km/h 3.2 km/h 96% 0 mm
03:18 2.6 °C 1.8 °C 1022.9 hPa North 1.6 km/h 1.6 km/h 95% 0 mm
03:23 2.6 °C 1.7 °C 1022.9 hPa Calm   1.6 km/h 94% 0 mm
03:28 2.6 °C 1.7 °C 1022.9 hPa NNE 1.6 km/h 1.6 km/h 94% 0 mm
03:33 2.8 °C 1.8 °C 1022.9 hPa NNE 1.6 km/h 1.6 km/h 93% 0 mm
03:38 2.8 °C 1.8 °C 1022.9 hPa NNE 1.6 km/h 1.6 km/h 93% 0 mm
03:43 2.8 °C 1.8 °C 1022.9 hPa North 1.6 km/h 3.2 km/h 93% 0 mm
03:48 2.7 °C 1.7 °C 1022.9 hPa North 1.6 km/h 1.6 km/h 93% 0 mm
03:53 2.6 °C 1.6 °C 1022.9 hPa North 1.6 km/h 1.6 km/h 93% 0 mm
03:58 2.6 °C 1.6 °C 1022.9 hPa North 1.6 km/h 1.6 km/h 93% 0 mm
04:03 2.6 °C 1.6 °C 1022.9 hPa North 1.6 km/h 1.6 km/h 93% 0 mm
04:08 2.7 °C 1.7 °C 1023.2 hPa NNE 1.6 km/h 1.6 km/h 93% 0 mm
04:13 2.8 °C 1.8 °C 1022.9 hPa NNE 1.6 km/h 1.6 km/h 93% 0 mm
04:18 2.8 °C 1.6 °C 1022.9 hPa North 1.6 km/h 4.8 km/h 92% 0 mm
04:23 2.7 °C 1.6 °C 1022.9 hPa NNE 3.2 km/h 4.8 km/h 92% 0 mm
04:28 2.6 °C 1.4 °C 1022.9 hPa North 3.2 km/h 3.2 km/h 92% 0 mm
04:33 2.5 °C 1.3 °C 1022.9 hPa NNE 1.6 km/h 3.2 km/h 92% 0 mm
04:38 2.4 °C 1.2 °C 1022.9 hPa North 1.6 km/h 1.6 km/h 92% 0 mm
04:43 2.4 °C 1.4 °C 1022.9 hPa North 3.2 km/h 3.2 km/h 93% 0 mm
04:48 2.4 °C 1.4 °C 1022.6 hPa NNW 4.8 km/h 4.8 km/h 93% 0 mm
04:53 2.4 °C 1.4 °C 1022.6 hPa North 3.2 km/h 4.8 km/h 93% 0 mm
04:58 2.4 °C 1.4 °C 1022.6 hPa North 1.6 km/h 3.2 km/h 93% 0 mm
05:03 2.4 °C 1.4 °C 1022.9 hPa Calm   1.6 km/h 93% 0 mm
05:08 2.3 °C 1.3 °C 1022.9 hPa Calm     93% 0 mm
05:13 2.3 °C 1.4 °C 1022.9 hPa North 1.6 km/h 3.2 km/h 94% 0 mm
05:18 2.4 °C 1.5 °C 1022.9 hPa NNE 1.6 km/h 1.6 km/h 94% 0 mm
05:23 2.4 °C 1.4 °C 1022.9 hPa North 3.2 km/h 3.2 km/h 93% 0 mm
05:28 2.2 °C 1.2 °C 1022.9 hPa NNE 3.2 km/h 3.2 km/h 93% 0 mm
05:33 2.2 °C 1.2 °C 1022.9 hPa NNE 3.2 km/h 4.8 km/h 93% 0 mm
05:38 2.2 °C 1.2 °C 1022.9 hPa NNE 4.8 km/h 4.8 km/h 93% 0 mm
05:43 2.3 °C 1.3 °C 1022.9 hPa NNE 3.2 km/h 3.2 km/h 93% 0 mm
05:48 2.2 °C 1.2 °C 1022.9 hPa NNE 1.6 km/h 1.6 km/h 93% 0 mm
05:53 2.2 °C 1.2 °C 1023.2 hPa North 3.2 km/h 3.2 km/h 93% 0 mm
05:58 2 °C 1 °C 1022.9 hPa North 3.2 km/h 4.8 km/h 93% 0 mm
06:03 1.8 °C 0.8 °C 1022.9 hPa NNE 3.2 km/h 4.8 km/h 93% 0 mm
06:08 1.7 °C 0.7 °C 1023.2 hPa NNE 3.2 km/h 4.8 km/h 93% 0 mm
06:13 1.6 °C 0.6 °C 1023.2 hPa North 1.6 km/h 3.2 km/h 93% 0 mm
06:19 1.5 °C 0.7 °C 1023.2 hPa North 1.6 km/h 3.2 km/h 94% 0 mm
06:24 1.5 °C 0.7 °C 1023.2 hPa North 1.6 km/h 3.2 km/h 94% 0 mm
06:29 1.5 °C 0.7 °C 1023.2 hPa NNE 1.6 km/h 3.2 km/h 94% 0 mm
06:34 1.6 °C 0.7 °C 1023.2 hPa North 1.6 km/h 3.2 km/h 94% 0 mm
06:39 1.6 °C 0.7 °C 1023.6 hPa NNE 1.6 km/h 1.6 km/h 94% 0 mm
06:44 1.6 °C 0.7 °C 1023.6 hPa NNE 1.6 km/h 1.6 km/h 94% 0 mm
06:49 1.6 °C 0.7 °C 1023.6 hPa Calm   1.6 km/h 94% 0 mm
06:54 1.6 °C 0.7 °C 1023.6 hPa Calm     94% 0 mm
06:59 1.4 °C 0.6 °C 1023.6 hPa Calm     94% 0 mm
07:04 1.2 °C 0.2 °C 1023.9 hPa Calm     93% 0 mm
07:09 1.1 °C 0.2 °C 1023.9 hPa Calm     94% 0 mm
07:14 0.7 °C -0.1 °C 1023.9 hPa Calm   1.6 km/h 94% 0 mm
07:19 0.6 °C -0.2 °C 1023.9 hPa Calm     94% 0 mm
07:24 0.4 °C -0.4 °C 1023.9 hPa Calm     94% 0 mm
07:29 0.3 °C -0.4 °C 1023.9 hPa Calm     95% 0 mm
07:34 0.2 °C -0.5 °C 1023.9 hPa Calm     95% 0 mm
07:39 0.3 °C -0.2 °C 1023.9 hPa North 1.6 km/h 1.6 km/h 96% 0 mm
07:44 0.3 °C -0.4 °C 1023.9 hPa North 1.6 km/h 1.6 km/h 95% 0 mm
07:49 0.2 °C -0.4 °C 1023.9 hPa Calm     96% 0 mm
07:54 0.1 °C -0.6 °C 1023.9 hPa Calm     95% 0 mm
07:59 0.2 °C -0.4 °C 1024.3 hPa Calm     96% 0 mm
08:04 0.7 °C 0.1 °C 1024.3 hPa Calm     96% 0 mm
08:09 1.1 °C 0.5 °C 1024.3 hPa Calm     96% 0 mm
08:14 1.2 °C 0.7 °C 1024.3 hPa Calm     96% 0 mm
08:19 1.4 °C 0.8 °C 1024.3 hPa North 1.6 km/h 1.6 km/h 96% 0 mm
08:24 1.6 °C 1 °C 1024.3 hPa North 1.6 km/h 1.6 km/h 96% 0 mm
08:29 1.8 °C 1.2 °C 1024.3 hPa North 1.6 km/h 1.6 km/h 96% 0 mm
08:35 1.9 °C 1.2 °C 1024.3 hPa North 1.6 km/h 3.2 km/h 95% 0 mm
08:40 2.1 °C 1.2 °C 1024.6 hPa Calm   1.6 km/h 94% 0 mm
08:45 2.3 °C 1.4 °C 1024.6 hPa North 1.6 km/h 1.6 km/h 94% 0 mm
08:50 2.6 °C 1.6 °C 1024.6 hPa North 1.6 km/h 3.2 km/h 93% 0 mm
08:55 2.8 °C 1.7 °C 1024.6 hPa North 1.6 km/h 3.2 km/h 92% 0 mm
09:00 3.1 °C 1.8 °C 1024.6 hPa North 1.6 km/h 3.2 km/h 91% 0 mm
09:05 3.4 °C 2.1 °C 1024.6 hPa North 1.6 km/h 1.6 km/h 91% 0 mm
09:10 3.8 °C 2.4 °C 1024.6 hPa NNE 3.2 km/h 4.8 km/h 91% 0 mm
09:15 4.1 °C 2.4 °C 1024.6 hPa NE 4.8 km/h 4.8 km/h 89% 0 mm
09:20 4.4 °C 2.3 °C 1024.6 hPa NE 4.8 km/h 8 km/h 86% 0 mm
09:25 4.8 °C 2.8 °C 1024.6 hPa NNE 4.8 km/h 6.4 km/h 87% 0 mm
09:30 5.1 °C 2.6 °C 1024.6 hPa NE 4.8 km/h 8 km/h 84% 0 mm
09:35 5.3 °C 2.8 °C 1024.6 hPa NNE 4.8 km/h 9.7 km/h 84% 0 mm
09:40 5.6 °C 3.1 °C 1024.9 hPa North 1.6 km/h 6.4 km/h 84% 0 mm
09:45 5.9 °C 3.1 °C 1024.6 hPa NE 1.6 km/h 6.4 km/h 82% 0 mm
09:50 6.1 °C 2.9 °C 1024.6 hPa NE 4.8 km/h 9.7 km/h 80% 0 mm
09:55 6.4 °C 3.4 °C 1024.6 hPa NE 3.2 km/h 9.7 km/h 81% 0 mm
10:00 6.7 °C 3.5 °C 1024.9 hPa NE 1.6 km/h 6.4 km/h 80% 0 mm
10:05 7 °C 3.4 °C 1024.6 hPa NNE 6.4 km/h 8 km/h 78% 0 mm
10:10 7.3 °C 3.7 °C 1024.6 hPa NE 9.7 km/h 9.7 km/h 78% 0 mm
10:15 7.4 °C 3.7 °C 1024.6 hPa North 8 km/h 9.7 km/h 77% 0 mm
10:20 7.6 °C 3.7 °C 1024.9 hPa NNE 6.4 km/h 9.7 km/h 76% 0 mm
10:25 7.7 °C 3.2 °C 1024.9 hPa ENE 9.7 km/h 11.3 km/h 73% 0 mm
10:30 7.8 °C 3.3 °C 1024.9 hPa ENE 6.4 km/h 9.7 km/h 73% 0 mm
10:35 8.1 °C 3.5 °C 1024.9 hPa NE 9.7 km/h 11.3 km/h 73% 0 mm
10:40 8.2 °C 3.5 °C 1024.9 hPa ENE 6.4 km/h 11.3 km/h 72% 0 mm
10:45 8.3 °C 3.4 °C 1024.9 hPa North 6.4 km/h 9.7 km/h 71% 0 mm
10:50 8.5 °C 2.7 °C 1024.9 hPa NNE 8 km/h 12.9 km/h 67% 0 mm
10:55 8.6 °C 2.6 °C 1024.9 hPa NNE 6.4 km/h 9.7 km/h 66% 0 mm
11:00 8.9 °C 2.7 °C 1024.9 hPa NNW 6.4 km/h 11.3 km/h 65% 0 mm
11:05 9.1 °C 2.8 °C 1024.9 hPa NE 8 km/h 8 km/h 65% 0 mm
11:10 9.2 °C 2.3 °C 1024.9 hPa ENE 9.7 km/h 11.3 km/h 62% 0 mm
11:15 9.3 °C 2.2 °C 1024.9 hPa NE 4.8 km/h 11.3 km/h 61% 0 mm
11:16 9.3 °C 2.2 °C 1024.9 hPa NE 6.4 km/h 11.3 km/h 61% 0 mm
11:21 9.4 °C 2.5 °C 1024.9 hPa NNE 8 km/h 12.9 km/h 62% 0 mm
11:26 9.5 °C 1.9 °C 1024.9 hPa ENE 3.2 km/h 11.3 km/h 59% 0 mm
11:31 9.6 °C 1.7 °C 1024.6 hPa NE 6.4 km/h 12.9 km/h 58% 0 mm
11:36 9.6 °C 2.2 °C 1024.6 hPa North 6.4 km/h 11.3 km/h 60% 0 mm
11:41 10 °C 2.1 °C 1024.6 hPa North 9.7 km/h 12.9 km/h 58% 0 mm
11:46 9.9 °C 1.1 °C 1024.6 hPa ENE 6.4 km/h 9.7 km/h 54% 0 mm
11:51 10.2 °C 2.8 °C 1024.3 hPa NNE 3.2 km/h 12.9 km/h 60% 0 mm
11:56 10.2 °C 1.8 °C 1024.3 hPa NNW 9.7 km/h 12.9 km/h 56% 0 mm
12:01 10.2 °C 1.3 °C 1024.3 hPa NE 6.4 km/h 12.9 km/h 54% 0 mm
12:06 10 °C 1.6 °C 1024.3 hPa NE 11.3 km/h 11.3 km/h 56% 0 mm
12:11 10.2 °C 2.1 °C 1024.3 hPa NNE 8 km/h 12.9 km/h 57% 0 mm
12:16 10.4 °C 1.8 °C 1024.3 hPa NE 3.2 km/h 8 km/h 55% 0 mm
12:21 10.5 °C 1.3 °C 1023.9 hPa North 8 km/h 14.5 km/h 53% 0 mm
12:26 10.5 °C 1.1 °C 1023.9 hPa NNE 6.4 km/h 11.3 km/h 52% 0 mm
12:31 10.7 °C 1.5 °C 1023.9 hPa NE 14.5 km/h 14.5 km/h 53% 0 mm
12:36 10.9 °C 1.7 °C 1023.9 hPa NE 6.4 km/h 12.9 km/h 53% 0 mm
12:41 10.8 °C 1.3 °C 1023.9 hPa NNE 11.3 km/h 12.9 km/h 52% 0 mm
12:46 10.7 °C 1.5 °C 1023.9 hPa East 8 km/h 12.9 km/h 53% 0 mm
12:51 10.8 °C 1.1 °C 1023.6 hPa North 9.7 km/h 14.5 km/h 51% 0 mm
12:56 11.1 °C 1.6 °C 1023.6 hPa NE 8 km/h 12.9 km/h 52% 0 mm
13:01 11.2 °C 0.9 °C 1023.6 hPa NNW 6.4 km/h 9.7 km/h 49% 0 mm
13:06 11.5 °C 0.6 °C 1023.2 hPa NW 9.7 km/h 9.7 km/h 47% 0 mm
13:11 11.7 °C 0.7 °C 1023.2 hPa NE 6.4 km/h 12.9 km/h 47% 0 mm
13:16 11.5 °C 0.6 °C 1023.2 hPa East 3.2 km/h 9.7 km/h 47% 0 mm
13:21 11.7 °C 1.6 °C 1022.9 hPa NE 9.7 km/h 19.3 km/h 50% 0 mm
13:26 11.8 °C 0.8 °C 1023.2 hPa NNW 4.8 km/h 11.3 km/h 47% 0 mm
13:31 11.7 °C -0.1 °C 1022.9 hPa NNE 3.2 km/h 11.3 km/h 44% 0 mm
13:36 11.8 °C -0.3 °C 1022.9 hPa NNW 4.8 km/h 11.3 km/h 43% 0 mm
13:41 12.1 °C -0.1 °C 1022.6 hPa NW 1.6 km/h 14.5 km/h 43% 0 mm
13:46 12.2 °C -0.3 °C 1022.6 hPa North 3.2 km/h 9.7 km/h 42% 0 mm
13:52 12.3 °C 0.1 °C 1022.2 hPa Calm   3.2 km/h 43% 0 mm
13:57 12.7 °C 1.3 °C 1022.2 hPa NE 9.7 km/h 9.7 km/h 46% 0 mm
14:02 12.4 °C 0.5 °C 1022.2 hPa North 6.4 km/h 9.7 km/h 44% 0 mm
14:07 12.7 °C 0.2 °C 1022.2 hPa NW 9.7 km/h 9.7 km/h 42% 0 mm
14:12 12.8 °C -0.4 °C 1022.2 hPa NW 4.8 km/h 14.5 km/h 40% 0 mm
14:17 12.9 °C -0.7 °C 1022.2 hPa NNW 6.4 km/h 8 km/h 39% 0 mm
14:22 13.1 °C 0.8 °C 1022.2 hPa NNE 9.7 km/h 9.7 km/h 43% 0 mm
14:27 13.2 °C 0.6 °C 1022.2 hPa NNW 4.8 km/h 12.9 km/h 42% 0 mm
14:32 12.8 °C -0.8 °C 1022.2 hPa NNE 4.8 km/h 12.9 km/h 39% 0 mm
14:37 12.8 °C -0.1 °C 1022.2 hPa NNE 4.8 km/h 14.5 km/h 41% 0 mm
14:39 12.9 °C -0.7 °C 1022.2 hPa NNW 9.7 km/h 14.5 km/h 39% 0 mm
14:44 13.2 °C -0.8 °C 1022.2 hPa NW 8 km/h 9.7 km/h 38% 0 mm
14:49 13.3 °C -0.4 °C 1022.2 hPa NE 1.6 km/h 6.4 km/h 39% 0 mm
14:54 13.4 °C -0.2 °C 1022.2 hPa NNE 8 km/h 11.3 km/h 39% 0 mm
14:59 13.2 °C -0.5 °C 1022.2 hPa NNW 6.4 km/h 8 km/h 39% 0 mm
15:04 13.4 °C -1 °C 1022.2 hPa North 8 km/h 17.7 km/h 37% 0 mm
15:09 13.3 °C -1.8 °C 1022.2 hPa NNE 12.9 km/h 16.1 km/h 35% 0 mm
15:14 13.2 °C -0.4 °C 1021.9 hPa North 9.7 km/h 12.9 km/h 39% 0 mm
15:19 13.2 °C -1.2 °C 1021.9 hPa NW 6.4 km/h 9.7 km/h 37% 0 mm
15:24 13.4 °C 0.1 °C 1021.9 hPa NE 11.3 km/h 11.3 km/h 40% 0 mm
15:29 13.4 °C -0.2 °C 1021.6 hPa NW 3.2 km/h 6.4 km/h 39% 0 mm
15:34 13.5 °C -0.6 °C 1021.6 hPa NNE 6.4 km/h 9.7 km/h 38% 0 mm
15:39 13.4 °C -0.6 °C 1021.9 hPa North 4.8 km/h 8 km/h 38% 0 mm
15:44 13.4 °C -0.6 °C 1021.6 hPa NNE 4.8 km/h 9.7 km/h 38% 0 mm
15:49 13.3 °C -1.1 °C 1021.6 hPa NE 8 km/h 16.1 km/h 37% 0 mm
15:54 13.1 °C -1.6 °C 1021.6 hPa NE 9.7 km/h 12.9 km/h 36% 0 mm
15:59 13.1 °C -1.3 °C 1021.6 hPa NE 4.8 km/h 11.3 km/h 37% 0 mm
16:04 13 °C -1.7 °C 1021.6 hPa NNE 1.6 km/h 6.4 km/h 36% 0 mm
16:10 13.1 °C -1.2 °C 1021.6 hPa NNW 8 km/h 11.3 km/h 37% 0 mm
16:15 13.4 °C -1.4 °C 1021.6 hPa NNE 8 km/h 11.3 km/h 36% 0 mm
16:20 13.3 °C -1.1 °C 1021.6 hPa NE 3.2 km/h 9.7 km/h 37% 0 mm
16:25 13.2 °C -0.8 °C 1021.6 hPa North 6.4 km/h 14.5 km/h 38% 0 mm
16:27 13.3 °C 0 °C 1021.6 hPa NNE 6.4 km/h 14.5 km/h 40% 0 mm
16:32 13.2 °C -0.4 °C 1021.6 hPa NNW 6.4 km/h 8 km/h 39% 0 mm
16:37 13.3 °C -1.1 °C 1021.6 hPa NNE 11.3 km/h 11.3 km/h 37% 0 mm
16:42 13.3 °C -0.3 °C 1021.6 hPa North 6.4 km/h 9.7 km/h 39% 0 mm
16:47 13.4 °C -0.6 °C 1021.6 hPa NNW 4.8 km/h 8 km/h 38% 0 mm
16:52 13.6 °C -0.5 °C 1021.6 hPa NNE 8 km/h 9.7 km/h 38% 0 mm
16:57 13.4 °C -1.4 °C 1021.6 hPa NNE 1.6 km/h 8 km/h 36% 0 mm
17:02 13.2 °C -1.2 °C 1021.6 hPa NNE 6.4 km/h 9.7 km/h 37% 0 mm
17:07 13 °C -1.3 °C 1021.9 hPa NE 3.2 km/h 9.7 km/h 37% 0 mm
17:12 12.8 °C -1.5 °C 1021.9 hPa NNE 6.4 km/h 6.4 km/h 37% 0 mm
17:17 12.9 °C -1.4 °C 1021.9 hPa North 4.8 km/h 6.4 km/h 37% 0 mm
17:22 13 °C -0.3 °C 1022.2 hPa NNW 1.6 km/h 6.4 km/h 40% 0 mm
17:27 12.8 °C -0.8 °C 1022.2 hPa NNW 4.8 km/h 6.4 km/h 39% 0 mm
17:32 12.5 °C 0.3 °C 1021.9 hPa NE 3.2 km/h 4.8 km/h 43% 0 mm
17:37 12.3 °C -0.3 °C 1022.2 hPa NNE 3.2 km/h 6.4 km/h 42% 0 mm
17:42 12.1 °C -0.1 °C 1021.9 hPa NE 8 km/h 9.7 km/h 43% 0 mm
17:47 12.1 °C -0.1 °C 1021.9 hPa North 6.4 km/h 8 km/h 43% 0 mm
17:52 12.1 °C -0.1 °C 1021.9 hPa NE 4.8 km/h 6.4 km/h 43% 0 mm
17:57 11.9 °C -0.2 °C 1021.9 hPa NNE 1.6 km/h 6.4 km/h 43% 0 mm
18:02 11.8 °C -0.3 °C 1022.2 hPa NNE 1.6 km/h 3.2 km/h 43% 0 mm
18:07 11.7 °C -0.1 °C 1022.2 hPa NNE 3.2 km/h 4.8 km/h 44% 0 mm
18:12 11.7 °C -0.1 °C 1022.2 hPa NE 4.8 km/h 6.4 km/h 44% 0 mm
18:17 11.6 °C -0.2 °C 1022.2 hPa NNE 3.2 km/h 4.8 km/h 44% 0 mm
18:23 11.5 °C -0.3 °C 1022.2 hPa NNE 1.6 km/h 3.2 km/h 44% 0 mm
18:28 11.4 °C -0.4 °C 1022.2 hPa Calm   1.6 km/h 44% 0 mm
18:33 11.3 °C -0.6 °C 1022.2 hPa NNE 1.6 km/h 3.2 km/h 44% 0 mm
18:38 11.2 °C -0.3 °C 1021.9 hPa NNE 1.6 km/h 3.2 km/h 45% 0 mm
18:43 11.1 °C -0.1 °C 1022.2 hPa NNE 1.6 km/h 1.6 km/h 46% 0 mm
18:48 11 °C -0.2 °C 1022.2 hPa Calm   1.6 km/h 46% 0 mm
18:53 11 °C -0.2 °C 1022.2 hPa NNE 1.6 km/h 3.2 km/h 46% 0 mm
18:58 10.9 °C 0.9 °C 1022.6 hPa Calm   1.6 km/h 50% 0 mm
19:03 10.6 °C 0 °C 1022.6 hPa Calm     48% 0 mm
19:08 10.4 °C 0.2 °C 1022.6 hPa North 3.2 km/h 3.2 km/h 49% 0 mm
19:13 10.4 °C 0.7 °C 1022.2 hPa NNE 3.2 km/h 3.2 km/h 51% 0 mm
19:18 10.3 °C 0.7 °C 1022.6 hPa NNE 1.6 km/h 4.8 km/h 51% 0 mm
19:23 10.3 °C 0.4 °C 1022.6 hPa NNE 1.6 km/h 3.2 km/h 50% 0 mm
19:28 10.4 °C 0.4 °C 1022.2 hPa NNE 3.2 km/h 4.8 km/h 50% 0 mm
19:33 10.4 °C 0.2 °C 1022.2 hPa NE 3.2 km/h 4.8 km/h 49% 0 mm
19:38 10.5 °C 0.5 °C 1022.2 hPa NNE 4.8 km/h 4.8 km/h 50% 0 mm
19:43 10.4 °C 0.4 °C 1022.2 hPa NNE 3.2 km/h 4.8 km/h 50% 0 mm
19:48 10.4 °C 0.4 °C 1022.2 hPa NE 3.2 km/h 4.8 km/h 50% 0 mm
19:53 10.4 °C 0.1 °C 1022.2 hPa NE 1.6 km/h 3.2 km/h 49% 0 mm
19:58 10.4 °C 0.2 °C 1022.2 hPa NE 1.6 km/h 6.4 km/h 49% 0 mm
20:03 10.3 °C 0.1 °C 1021.9 hPa NE 3.2 km/h 6.4 km/h 49% 0 mm
20:08 10.2 °C 0.3 °C 1021.9 hPa NNE 1.6 km/h 6.4 km/h 50% 0 mm
20:13 10.2 °C 0 °C 1021.9 hPa NE 1.6 km/h 3.2 km/h 49% 0 mm
20:18 10.2 °C 0 °C 1021.9 hPa NNE 3.2 km/h 3.2 km/h 49% 0 mm
20:24 10.2 °C -0.1 °C 1021.9 hPa North 1.6 km/h 3.2 km/h 49% 0 mm
20:29 10.1 °C -0.2 °C 1021.9 hPa NNE 1.6 km/h 3.2 km/h 49% 0 mm
20:34 10.1 °C -0.2 °C 1022.2 hPa NNW 3.2 km/h 3.2 km/h 49% 0 mm
20:39 9.8 °C 0.7 °C 1022.2 hPa NNW 3.2 km/h 6.4 km/h 53% 0 mm
20:44 9.6 °C 0.5 °C 1022.2 hPa NNW 3.2 km/h 6.4 km/h 53% 0 mm
20:49 9.6 °C 0.7 °C 1021.9 hPa NNW 4.8 km/h 4.8 km/h 54% 0 mm
20:54 9.6 °C 0.7 °C 1021.9 hPa NNW 4.8 km/h 8 km/h 54% 0 mm
20:59 9.6 °C 0.7 °C 1021.9 hPa NNW 6.4 km/h 9.7 km/h 54% 0 mm
21:04 9.6 °C 0.5 °C 1021.9 hPa North 4.8 km/h 9.7 km/h 53% 0 mm
21:09 9.6 °C 0.5 °C 1022.2 hPa North 6.4 km/h 11.3 km/h 53% 0 mm
21:14 9.7 °C 0.9 °C 1022.2 hPa NNW 9.7 km/h 12.9 km/h 54% 0 mm
21:19 9.7 °C 0.9 °C 1022.2 hPa North 6.4 km/h 9.7 km/h 54% 0 mm
21:24 9.7 °C 1.1 °C 1022.2 hPa NNW 9.7 km/h 9.7 km/h 55% 0 mm
21:29 9.7 °C 1.1 °C 1022.6 hPa NNW 6.4 km/h 9.7 km/h 55% 0 mm
21:34 9.6 °C 1.3 °C 1022.2 hPa NW 8 km/h 11.3 km/h 56% 0 mm
21:39 9.7 °C 1.3 °C 1022.6 hPa NNW 9.7 km/h 9.7 km/h 56% 0 mm
21:44 9.7 °C 1.3 °C 1022.6 hPa NW 8 km/h 11.3 km/h 56% 0 mm
21:49 9.7 °C 1.3 °C 1022.6 hPa NW 6.4 km/h 12.9 km/h 56% 0 mm
21:54 9.6 °C 1.5 °C 1022.6 hPa NW 9.7 km/h 11.3 km/h 57% 0 mm
21:59 9.6 °C 1.5 °C 1022.6 hPa NNW 8 km/h 12.9 km/h 57% 0 mm
22:04 9.6 °C 1.4 °C 1022.6 hPa NNW 9.7 km/h 12.9 km/h 57% 0 mm
22:09 9.6 °C 1.4 °C 1022.6 hPa NNW 8 km/h 12.9 km/h 57% 0 mm
22:14 9.5 °C 1.7 °C 1022.9 hPa NNW 6.4 km/h 11.3 km/h 58% 0 mm
22:19 9.5 °C 1.7 °C 1022.9 hPa NW 6.4 km/h 14.5 km/h 58% 0 mm
22:24 9.5 °C 1.7 °C 1022.9 hPa NNW 4.8 km/h 11.3 km/h 58% 0 mm
22:29 9.4 °C 1.6 °C 1022.9 hPa NNW 6.4 km/h 8 km/h 58% 0 mm
22:34 9.4 °C 1.6 °C 1022.6 hPa NNW 6.4 km/h 12.9 km/h 58% 0 mm
22:39 9.4 °C 1.8 °C 1022.6 hPa NW 3.2 km/h 9.7 km/h 59% 0 mm
22:44 9.3 °C 1.9 °C 1022.6 hPa NNW 4.8 km/h 6.4 km/h 60% 0 mm
22:49 9.3 °C 1.9 °C 1022.9 hPa NNW 6.4 km/h 8 km/h 60% 0 mm
22:54 9.2 °C 2.1 °C 1022.9 hPa NNW 4.8 km/h 6.4 km/h 61% 0 mm
22:59 9.1 °C 2 °C 1022.9 hPa NW 3.2 km/h 6.4 km/h 61% 0 mm
23:04 9.1 °C 1.8 °C 1022.9 hPa NNW 6.4 km/h 9.7 km/h 60% 0 mm
23:09 9.1 °C 2 °C 1022.9 hPa NNW 6.4 km/h 9.7 km/h 61% 0 mm
23:14 9.1 °C 2 °C 1022.9 hPa NW 3.2 km/h 8 km/h 61% 0 mm
23:20 9.1 °C 2 °C 1023.2 hPa NNW 8 km/h 9.7 km/h 61% 0 mm
23:24 9.1 °C 1.8 °C 1023.2 hPa NW 11.3 km/h 11.3 km/h 60% 0 mm
23:30 9 °C 2.6 °C 1023.2 hPa NW 3.2 km/h 11.3 km/h 64% 0 mm
23:35 8.8 °C 2.6 °C 1022.9 hPa WNW 8 km/h 8 km/h 65% 0 mm
23:40 8.7 °C 2.5 °C 1022.9 hPa NNW 6.4 km/h 12.9 km/h 65% 0 mm
23:45 8.6 °C 2.4 °C 1023.2 hPa NW 4.8 km/h 6.4 km/h 65% 0 mm
23:50 8.7 °C 2.4 °C 1023.2 hPa WNW 9.7 km/h 9.7 km/h 65% 0 mm
23:55 8.7 °C 2.1 °C 1023.2 hPa NW 14.5 km/h 14.5 km/h 63% 0 mm
Compliments of Weather Underground